createdAt,value
2022-11-07T00:00:42.940Z,1.00
2022-11-07T00:03:17.455Z,1.20
2022-11-07T00:05:47.860Z,0.93
2022-11-07T00:08:18.216Z,0.90
2022-11-07T00:10:48.388Z,1.10
2022-11-07T00:13:19.911Z,0.90
2022-11-07T00:15:50.565Z,0.80
2022-11-07T00:18:22.785Z,0.80
2022-11-07T00:20:53.446Z,1.00
2022-11-07T00:23:24.291Z,1.00
2022-11-07T00:25:54.639Z,0.80
2022-11-07T00:28:25.302Z,0.70
2022-11-07T00:30:55.611Z,0.70
2022-11-07T00:33:26.238Z,0.77
2022-11-07T00:35:56.668Z,0.60
2022-11-07T00:38:27.452Z,0.50
2022-11-07T00:41:02.870Z,1.10
2022-11-07T00:43:34.241Z,0.90
2022-11-07T00:46:07.183Z,0.75
2022-11-07T00:48:39.038Z,0.80
2022-11-07T00:51:15.206Z,0.88
2022-11-07T00:53:46.359Z,1.02
2022-11-07T00:56:20.510Z,0.60
2022-11-07T00:58:50.891Z,0.75
2022-11-07T01:01:24.004Z,0.73
2022-11-07T01:04:13.543Z,0.50
2022-11-07T01:06:46.744Z,0.50
2022-11-07T01:09:22.887Z,0.70
2022-11-07T01:11:53.661Z,0.65
2022-11-07T01:14:26.271Z,0.77
2022-11-07T01:16:56.982Z,0.65
2022-11-07T01:19:27.653Z,0.50
2022-11-07T01:21:59.719Z,0.63
2022-11-07T01:24:30.438Z,0.70
2022-11-07T01:27:02.536Z,0.73
2022-11-07T01:29:33.570Z,0.55
2022-11-07T01:32:04.529Z,0.60
2022-11-07T01:34:35.555Z,0.77
2022-11-07T01:37:06.624Z,0.68
2022-11-07T01:39:38.128Z,0.60
2022-11-07T01:42:08.950Z,0.70
2022-11-07T01:44:45.375Z,0.52
2022-11-07T01:47:16.077Z,0.70
2022-11-07T01:49:48.498Z,0.80
2022-11-07T01:52:23.565Z,0.77
2022-11-07T01:55:19.566Z,0.70
2022-11-07T01:57:59.044Z,1.25
2022-11-07T02:00:30.840Z,0.80
2022-11-07T02:03:06.146Z,0.77
2022-11-07T02:05:45.443Z,0.70
2022-11-07T02:08:16.492Z,0.93
2022-11-07T02:10:47.833Z,0.85
2022-11-07T02:13:29.136Z,0.98
2022-11-07T02:16:04.045Z,0.88
2022-11-07T02:18:38.026Z,0.60
2022-11-07T02:21:33.814Z,0.65
2022-11-07T02:24:12.628Z,0.50
2022-11-07T02:26:44.449Z,0.68
2022-11-07T02:29:15.197Z,0.77
2022-11-07T02:31:45.410Z,0.77
2022-11-07T02:34:15.635Z,1.00
2022-11-07T02:36:46.470Z,0.50
2022-11-07T02:39:17.178Z,0.60
2022-11-07T02:41:48.893Z,0.82
2022-11-07T02:44:21.179Z,0.60
2022-11-07T02:46:53.320Z,0.65
2022-11-07T02:49:24.279Z,0.60
2022-11-07T02:51:55.436Z,1.00
2022-11-07T02:54:28.097Z,1.15
2022-11-07T02:56:58.729Z,0.60
2022-11-07T02:59:28.984Z,0.70
2022-11-07T03:01:59.425Z,0.80
2022-11-07T03:04:29.718Z,0.70
2022-11-07T03:07:01.615Z,0.90
2022-11-07T03:09:31.794Z,0.73
2022-11-07T03:12:04.386Z,0.80
2022-11-07T03:14:35.182Z,0.80
2022-11-07T03:17:07.216Z,1.27
2022-11-07T03:19:38.176Z,0.77
2022-11-07T03:22:08.687Z,0.77
2022-11-07T03:24:39.007Z,0.90
2022-11-07T03:27:09.270Z,0.80
2022-11-07T03:29:40.346Z,1.23
2022-11-07T03:32:13.888Z,0.90
2022-11-07T03:34:45.788Z,0.80
2022-11-07T03:37:16.181Z,1.15
2022-11-07T03:39:46.478Z,0.88
2022-11-07T03:42:16.811Z,1.08
2022-11-07T03:44:47.038Z,1.45
2022-11-07T03:47:17.746Z,1.30
2022-11-07T03:49:48.421Z,1.00
2022-11-07T03:52:19.125Z,1.00
2022-11-07T03:54:49.405Z,1.20
2022-11-07T03:57:20.159Z,0.80
2022-11-07T03:59:50.443Z,1.70
2022-11-07T04:02:21.670Z,2.42
2022-11-07T04:04:52.841Z,1.05
2022-11-07T04:07:23.685Z,1.25
2022-11-07T04:09:54.311Z,1.17
2022-11-07T04:12:43.007Z,1.65
2022-11-07T04:15:33.961Z,1.70
2022-11-07T04:18:04.480Z,1.48
2022-11-07T04:20:34.758Z,1.83
2022-11-07T04:23:05.142Z,1.30
2022-11-07T04:26:10.515Z,1.17
2022-11-07T04:28:41.398Z,1.10
2022-11-07T04:31:11.734Z,1.10
2022-11-07T04:33:42.591Z,0.98
2022-11-07T04:36:13.304Z,1.30
2022-11-07T04:38:46.679Z,0.80
2022-11-07T04:41:26.542Z,1.05
2022-11-07T04:43:57.118Z,1.08
2022-11-07T04:46:27.742Z,1.10
2022-11-07T04:48:59.338Z,0.98
2022-11-07T04:51:29.698Z,0.80
2022-11-07T04:53:59.999Z,1.10
2022-11-07T04:56:34.293Z,1.00
2022-11-07T04:59:05.440Z,0.90
2022-11-07T05:01:36.345Z,0.95
2022-11-07T05:04:06.847Z,1.42
2022-11-07T05:06:41.341Z,1.48
2022-11-07T05:09:18.880Z,1.52
2022-11-07T05:11:52.666Z,1.27
2022-11-07T05:14:24.350Z,1.35
2022-11-07T05:16:56.828Z,1.40
2022-11-07T05:19:28.179Z,1.05
2022-11-07T05:22:17.273Z,1.10
2022-11-07T05:24:47.551Z,0.93
2022-11-07T05:27:23.037Z,1.00
2022-11-07T05:29:54.008Z,1.52
2022-11-07T05:32:24.269Z,0.95
2022-11-07T05:34:55.049Z,1.00
2022-11-07T05:37:25.410Z,1.27
2022-11-07T05:39:55.784Z,0.73
2022-11-07T05:42:26.077Z,0.60
2022-11-07T05:44:56.536Z,0.80
2022-11-07T05:47:27.221Z,0.70
2022-11-07T05:49:57.400Z,0.60
2022-11-07T05:52:28.076Z,0.57
2022-11-07T05:54:58.297Z,0.68
2022-11-07T05:57:28.944Z,0.75
2022-11-07T05:59:59.608Z,0.50
2022-11-07T06:02:30.443Z,0.55
2022-11-07T06:05:00.705Z,0.40
2022-11-07T06:07:31.439Z,0.35
2022-11-07T06:10:02.088Z,0.57
2022-11-07T06:12:32.810Z,0.70
2022-11-07T06:15:03.564Z,0.70
2022-11-07T06:17:34.693Z,0.77
2022-11-07T06:20:05.665Z,0.90
2022-11-07T06:22:35.882Z,0.70
2022-11-07T06:25:07.076Z,0.80
2022-11-07T06:27:37.583Z,0.80
2022-11-07T06:30:09.305Z,0.50
2022-11-07T06:32:42.438Z,0.73
2022-11-07T06:35:13.731Z,0.82
2022-11-07T06:37:43.963Z,0.80
2022-11-07T06:40:16.321Z,0.50
2022-11-07T06:42:47.013Z,0.70
2022-11-07T06:45:17.252Z,1.25
2022-11-07T06:47:47.505Z,1.35
2022-11-07T06:50:17.807Z,0.70
2022-11-07T06:52:48.091Z,0.50
2022-11-07T06:55:18.417Z,0.50
2022-11-07T06:57:48.640Z,0.50
2022-11-07T07:00:19.635Z,0.70
2022-11-07T07:02:58.426Z,0.60
2022-11-07T07:05:29.606Z,0.68
2022-11-07T07:08:02.273Z,0.52
2022-11-07T07:10:33.801Z,0.50
2022-11-07T07:13:04.468Z,0.60
2022-11-07T07:15:49.400Z,1.80
2022-11-07T07:18:21.201Z,0.95
2022-11-07T07:20:56.512Z,0.90
2022-11-07T07:23:26.684Z,0.70
2022-11-07T07:25:57.166Z,0.70
2022-11-07T07:28:27.483Z,0.75
2022-11-07T07:31:09.861Z,0.70
2022-11-07T07:33:40.276Z,0.70
2022-11-07T07:36:14.210Z,0.52
2022-11-07T07:38:48.089Z,0.93
2022-11-07T07:41:18.772Z,0.60
2022-11-07T07:43:49.399Z,0.80
2022-11-07T07:46:25.199Z,0.55
2022-11-07T07:48:55.905Z,0.60
2022-11-07T07:51:26.596Z,0.70
2022-11-07T07:53:56.962Z,0.68
2022-11-07T07:56:27.193Z,0.50
2022-11-07T07:58:57.407Z,0.50
2022-11-07T08:01:27.813Z,0.47
2022-11-07T08:04:01.960Z,0.60
2022-11-07T08:06:34.620Z,0.40
2022-11-07T08:09:05.432Z,0.40
2022-11-07T08:11:37.486Z,0.60
2022-11-07T08:14:08.182Z,0.40
2022-11-07T08:16:45.165Z,0.57
2022-11-07T08:19:17.023Z,0.40
2022-11-07T08:21:48.014Z,0.40
2022-11-07T08:24:18.514Z,0.52
2022-11-07T08:26:49.126Z,0.50
2022-11-07T08:29:20.181Z,0.80
2022-11-07T08:31:52.801Z,0.43
2022-11-07T08:34:24.169Z,0.55
2022-11-07T08:36:54.517Z,0.77
2022-11-07T08:39:24.756Z,0.75
2022-11-07T08:41:55.215Z,0.90
2022-11-07T08:44:27.260Z,1.30
2022-11-07T08:46:57.945Z,1.02
2022-11-07T08:49:28.394Z,0.70
2022-11-07T08:51:59.638Z,1.10
2022-11-07T08:54:32.750Z,0.90
2022-11-07T08:57:03.418Z,0.80
2022-11-07T08:59:33.702Z,0.80
2022-11-07T09:02:47.542Z,0.70
2022-11-07T09:04:54.514Z,0.82
2022-11-07T09:07:25.744Z,0.90
2022-11-07T09:09:56.658Z,0.88
2022-11-07T09:12:27.831Z,0.70
2022-11-07T09:14:58.360Z,1.20
2022-11-07T09:17:29.054Z,3.03
2022-11-07T09:19:59.877Z,2.20
2022-11-07T09:22:30.558Z,2.28
2022-11-07T09:25:00.867Z,2.13
2022-11-07T09:27:31.154Z,1.90
2022-11-07T09:30:02.173Z,1.70
2022-11-07T09:32:44.999Z,1.48
2022-11-07T09:35:17.014Z,1.20
2022-11-07T09:37:47.336Z,1.20
2022-11-07T09:40:26.275Z,1.05
2022-11-07T09:43:15.025Z,0.93
2022-11-07T09:46:05.940Z,0.93
2022-11-07T09:48:47.173Z,0.60
2022-11-07T09:51:30.367Z,0.60
2022-11-07T09:54:05.884Z,0.40
2022-11-07T09:56:37.460Z,0.80
2022-11-07T09:59:32.507Z,0.60
2022-11-07T10:02:04.310Z,0.73
2022-11-07T10:04:35.168Z,0.73
2022-11-07T10:07:27.018Z,0.40
2022-11-07T10:10:43.938Z,0.55
2022-11-07T10:13:18.106Z,0.60
2022-11-07T10:16:07.007Z,0.50
2022-11-07T10:18:48.288Z,0.45
2022-11-07T10:21:41.781Z,0.50
2022-11-07T10:24:36.517Z,0.60
2022-11-07T10:27:13.856Z,0.50
2022-11-07T10:29:54.631Z,0.50
2022-11-07T10:32:32.530Z,0.70
2022-11-07T10:35:08.288Z,0.80
2022-11-07T10:37:38.924Z,0.50
2022-11-07T10:40:19.436Z,0.70
2022-11-07T10:42:50.913Z,0.70
2022-11-07T10:45:21.817Z,0.63
2022-11-07T10:48:04.948Z,0.95
2022-11-07T10:50:36.043Z,0.75
2022-11-07T10:53:12.848Z,0.55
2022-11-07T10:58:45.837Z,0.60
2022-11-07T11:01:16.228Z,0.57
2022-11-07T11:03:51.748Z,0.40
2022-11-07T11:06:24.243Z,1.30
2022-11-07T11:08:55.663Z,1.45
2022-11-07T11:11:37.808Z,0.90
2022-11-07T11:14:23.502Z,0.47
2022-11-07T11:16:58.610Z,0.60
2022-11-07T11:19:50.747Z,0.50
2022-11-07T11:22:24.005Z,0.50
2022-11-07T11:25:15.848Z,0.63
2022-11-07T11:27:50.824Z,0.45
2022-11-07T11:30:25.520Z,0.73
2022-11-07T11:33:11.318Z,0.50
2022-11-07T11:36:01.102Z,1.05
2022-11-07T11:38:42.143Z,0.60
2022-11-07T11:41:31.602Z,0.80
2022-11-07T11:44:40.398Z,0.52
2022-11-07T11:47:36.240Z,0.80
2022-11-07T11:50:08.711Z,0.90
2022-11-07T11:52:39.361Z,0.80
2022-11-07T11:55:17.306Z,1.13
2022-11-07T11:58:01.653Z,0.63
2022-11-07T12:00:39.328Z,1.23
2022-11-07T12:03:18.629Z,0.65
2022-11-07T12:06:06.721Z,1.10
2022-11-07T12:08:55.108Z,0.90
2022-11-07T12:11:44.255Z,0.73
2022-11-07T12:14:46.681Z,0.80
2022-11-07T12:17:20.353Z,0.85
2022-11-07T12:20:23.648Z,0.73
2022-11-07T12:23:48.976Z,0.80
2022-11-07T12:26:46.166Z,1.20
2022-11-07T12:29:37.375Z,1.30
2022-11-07T12:32:28.956Z,1.20
2022-11-07T12:35:24.278Z,0.90
2022-11-07T12:38:29.997Z,1.33
2022-11-07T12:41:06.981Z,1.02
2022-11-07T12:43:49.673Z,1.55
2022-11-07T12:46:40.163Z,0.95
2022-11-07T12:49:39.809Z,1.15
2022-11-07T12:52:28.776Z,1.13
2022-11-07T12:55:13.643Z,1.33
2022-11-07T12:57:45.248Z,1.10
2022-11-07T13:00:29.251Z,1.30
2022-11-07T13:03:31.294Z,1.70
2022-11-07T13:06:32.608Z,1.40
2022-11-07T13:09:28.359Z,1.30
2022-11-07T13:12:19.167Z,1.40
2022-11-07T13:14:50.060Z,1.02
2022-11-07T13:17:33.786Z,1.20
2022-11-07T13:20:09.217Z,1.70
2022-11-07T13:22:43.847Z,1.55
2022-11-07T13:25:17.527Z,1.08
2022-11-07T13:28:01.957Z,1.00
2022-11-07T13:30:43.036Z,1.20
2022-11-07T13:33:35.466Z,1.40
2022-11-07T13:36:28.669Z,1.30
2022-11-07T13:39:02.136Z,1.23
2022-11-07T13:41:34.243Z,1.10
2022-11-07T13:44:27.162Z,1.38
2022-11-07T13:47:03.473Z,1.20
2022-11-07T13:49:47.934Z,1.02
2022-11-07T13:52:30.888Z,1.58
2022-11-07T13:55:22.603Z,1.50
2022-11-07T13:58:06.719Z,1.20
2022-11-07T14:00:37.209Z,1.40
2022-11-07T14:03:08.329Z,1.50
2022-11-07T14:05:40.491Z,1.25
2022-11-07T14:08:37.747Z,1.58
2022-11-07T14:11:21.041Z,1.50
2022-11-07T14:13:55.807Z,1.60
2022-11-07T14:16:33.726Z,1.92
2022-11-07T14:19:08.264Z,1.17
2022-11-07T14:21:40.027Z,1.15
2022-11-07T14:24:39.422Z,1.52
2022-11-07T14:27:16.936Z,1.05
2022-11-07T14:30:05.557Z,1.27
2022-11-07T14:32:37.832Z,1.27
2022-11-07T14:35:11.965Z,1.40
2022-11-07T14:37:42.941Z,1.33
2022-11-07T14:40:13.943Z,1.83
2022-11-07T14:42:46.734Z,1.15
2022-11-07T14:45:33.325Z,1.10
2022-11-07T14:48:17.029Z,1.30
2022-11-07T14:50:50.943Z,1.20
2022-11-07T14:53:33.298Z,1.20
2022-11-07T14:56:11.582Z,1.48
2022-11-07T14:58:43.009Z,1.02
2022-11-07T15:01:18.054Z,1.30
2022-11-07T15:04:02.519Z,1.42
2022-11-07T15:06:37.971Z,1.55
2022-11-07T15:09:11.108Z,1.40
2022-11-07T15:11:44.028Z,1.30
2022-11-07T15:14:35.763Z,1.42
2022-11-07T15:17:07.285Z,1.60
2022-11-07T15:19:38.980Z,1.00
2022-11-07T15:22:09.640Z,1.02
2022-11-07T15:24:43.261Z,0.95
2022-11-07T15:27:39.239Z,1.30
2022-11-07T15:30:27.691Z,1.20
2022-11-07T15:32:58.241Z,1.20
2022-11-07T15:35:45.203Z,0.90
2022-11-07T15:38:34.403Z,1.67
2022-11-07T15:41:05.790Z,1.13
2022-11-07T15:43:37.354Z,0.90
2022-11-07T15:46:28.099Z,1.05
2022-11-07T15:48:59.380Z,0.77
2022-11-07T15:51:31.756Z,1.00
2022-11-07T15:54:03.369Z,1.30
2022-11-07T15:56:34.100Z,1.45
2022-11-07T15:59:06.041Z,1.10
2022-11-07T16:01:36.976Z,1.48
2022-11-07T16:04:08.806Z,0.90
2022-11-07T16:06:45.694Z,1.00
2022-11-07T16:09:24.057Z,1.33
2022-11-07T16:11:54.760Z,1.38
2022-11-07T16:17:21.076Z,1.20
2022-11-07T16:19:51.754Z,1.00
2022-11-07T16:22:22.717Z,0.90
2022-11-07T16:24:53.389Z,0.68
2022-11-07T16:27:24.401Z,0.70
2022-11-07T16:29:55.075Z,0.95
2022-11-07T16:32:25.349Z,0.82
2022-11-07T16:34:55.974Z,0.63
2022-11-07T16:37:26.182Z,1.60
2022-11-07T16:39:57.695Z,0.90
2022-11-07T16:42:28.995Z,1.00
2022-11-07T16:45:01.342Z,0.95
2022-11-07T16:47:34.559Z,0.85
2022-11-07T16:50:05.241Z,1.13
2022-11-07T16:52:35.525Z,0.70
2022-11-07T16:55:05.942Z,0.80
2022-11-07T16:57:39.481Z,1.00
2022-11-07T17:00:18.654Z,0.68
2022-11-07T17:02:49.996Z,0.70
2022-11-07T17:05:20.967Z,0.90
2022-11-07T17:07:53.231Z,0.65
2022-11-07T17:10:24.207Z,0.63
2022-11-07T17:12:54.815Z,0.98
2022-11-07T17:15:26.024Z,0.90
2022-11-07T17:17:59.879Z,0.68
2022-11-07T17:20:50.399Z,0.80
2022-11-07T17:23:29.846Z,0.80
2022-11-07T17:26:05.355Z,0.70
2022-11-07T17:28:36.124Z,0.98
2022-11-07T17:31:08.529Z,0.85
2022-11-07T17:33:39.203Z,0.75
2022-11-07T17:36:21.530Z,0.80
2022-11-07T17:38:53.423Z,0.95
2022-11-07T17:41:25.799Z,0.82
2022-11-07T17:43:57.140Z,0.77
2022-11-07T17:46:33.123Z,1.00
2022-11-07T17:49:06.483Z,0.80
2022-11-07T17:51:42.338Z,1.55
2022-11-07T17:54:17.649Z,0.90
2022-11-07T17:56:50.420Z,0.90
2022-11-07T17:59:22.757Z,0.90
2022-11-07T18:01:53.733Z,0.93
2022-11-07T18:04:26.001Z,0.80
2022-11-07T18:06:56.377Z,0.70
2022-11-07T18:09:27.880Z,0.80
2022-11-07T18:11:58.602Z,0.65
2022-11-07T18:14:29.277Z,1.05
2022-11-07T18:17:00.340Z,1.08
2022-11-07T18:19:31.355Z,1.35
2022-11-07T18:22:02.218Z,0.75
2022-11-07T18:24:32.852Z,0.80
2022-11-07T18:27:06.621Z,1.05
2022-11-07T18:29:41.598Z,0.80
2022-11-07T18:32:12.067Z,0.70
2022-11-07T18:34:43.108Z,1.00
2022-11-07T18:37:14.751Z,0.90
2022-11-07T18:39:45.367Z,1.13
2022-11-07T18:42:16.385Z,1.17
2022-11-07T18:44:47.020Z,0.80
2022-11-07T18:47:18.051Z,0.82
2022-11-07T18:49:51.587Z,1.67
2022-11-07T18:52:26.726Z,1.17
2022-11-07T18:54:57.388Z,1.08
2022-11-07T18:57:28.448Z,1.00
2022-11-07T18:59:59.099Z,1.50
2022-11-07T19:02:31.412Z,0.82
2022-11-07T19:05:02.142Z,0.95
2022-11-07T19:07:32.848Z,0.90
2022-11-07T19:10:03.973Z,1.95
2022-11-07T19:12:34.697Z,1.00
2022-11-07T19:15:07.846Z,1.02
2022-11-07T19:17:39.572Z,0.80
2022-11-07T19:20:10.292Z,1.30
2022-11-07T19:22:41.641Z,1.20
2022-11-07T19:25:12.186Z,1.30
2022-11-07T19:27:43.002Z,1.10
2022-11-07T19:30:14.072Z,0.70
2022-11-07T19:32:44.833Z,1.08
2022-11-07T19:35:15.071Z,0.90
2022-11-07T19:37:45.566Z,0.90
2022-11-07T19:40:16.336Z,1.00
2022-11-07T19:42:47.013Z,1.40
2022-11-07T19:45:17.764Z,1.23
2022-11-07T19:47:49.674Z,1.05
2022-11-07T19:50:20.549Z,1.48
2022-11-07T19:52:51.876Z,1.00
2022-11-07T19:55:22.195Z,1.27
2022-11-07T19:57:53.668Z,1.20
2022-11-07T20:00:27.885Z,1.02
2022-11-07T20:02:58.795Z,1.10
2022-11-07T20:05:32.892Z,1.25
2022-11-07T20:08:05.389Z,1.05
2022-11-07T20:10:36.098Z,1.10
2022-11-07T20:13:06.868Z,0.95
2022-11-07T20:15:37.679Z,1.10
2022-11-07T20:18:08.703Z,1.20
2022-11-07T20:20:40.615Z,1.90
2022-11-07T20:23:12.273Z,1.02
2022-11-07T20:25:46.578Z,1.50
2022-11-07T20:28:17.844Z,1.40
2022-11-07T20:30:48.761Z,1.58
2022-11-07T20:33:19.373Z,1.90
2022-11-07T20:36:01.150Z,1.73
2022-11-07T20:38:35.814Z,1.77
2022-11-07T20:41:08.400Z,2.30
2022-11-07T20:43:39.368Z,2.13
2022-11-07T20:46:16.980Z,2.20
2022-11-07T20:48:48.535Z,2.13
2022-11-07T20:51:22.115Z,1.95
2022-11-07T20:53:53.127Z,2.22
2022-11-07T20:56:25.662Z,2.20
2022-11-07T20:58:57.354Z,2.40
2022-11-07T21:01:37.828Z,2.45
2022-11-07T21:04:10.836Z,2.70
2022-11-07T21:06:41.632Z,2.80
2022-11-07T21:09:13.353Z,2.55
2022-11-07T21:11:47.014Z,3.13
2022-11-07T21:14:17.849Z,2.65
2022-11-07T21:16:49.552Z,2.50
2022-11-07T21:19:21.498Z,2.60
2022-11-07T21:21:52.453Z,2.53
2022-11-07T21:24:23.228Z,2.20
2022-11-07T21:26:53.897Z,2.50
2022-11-07T21:29:29.221Z,1.80
2022-11-07T21:32:01.183Z,2.92
2022-11-07T21:34:36.222Z,1.98
2022-11-07T21:37:09.230Z,2.33
2022-11-07T21:39:41.206Z,2.25
2022-11-07T21:42:12.083Z,2.28
2022-11-07T21:44:43.715Z,2.72
2022-11-07T21:47:14.345Z,1.98
2022-11-07T21:49:45.356Z,2.10
2022-11-07T21:52:16.005Z,2.40
2022-11-07T21:54:47.618Z,1.90
2022-11-07T21:57:18.385Z,2.40
2022-11-07T21:59:49.464Z,2.30
2022-11-07T22:02:23.283Z,1.95
2022-11-07T22:04:54.436Z,2.17
2022-11-07T22:07:25.432Z,2.28
2022-11-07T22:09:58.092Z,2.58
2022-11-07T22:12:28.765Z,2.85
2022-11-07T22:14:59.714Z,2.20
2022-11-07T22:17:30.459Z,2.63
2022-11-07T22:20:02.071Z,2.40
2022-11-07T22:22:32.863Z,2.53
2022-11-07T22:25:04.243Z,2.55
2022-11-07T22:27:34.940Z,2.47
2022-11-07T22:30:06.346Z,2.30
2022-11-07T22:32:37.032Z,2.50
2022-11-07T22:35:09.372Z,2.78
2022-11-07T22:37:40.236Z,3.15
2022-11-07T22:40:14.297Z,2.65
2022-11-07T22:45:17.306Z,3.15
2022-11-07T22:47:48.274Z,2.95
2022-11-07T22:50:19.328Z,2.20
2022-11-07T22:52:51.666Z,2.70
2022-11-07T22:55:22.684Z,2.75
2022-11-07T22:57:55.275Z,2.75
2022-11-07T23:00:26.798Z,2.38
2022-11-07T23:02:57.612Z,3.15
2022-11-07T23:05:29.201Z,4.22
2022-11-07T23:08:00.059Z,3.00
2022-11-07T23:10:31.743Z,3.05
2022-11-07T23:13:04.254Z,3.15
2022-11-07T23:15:35.501Z,2.53
2022-11-07T23:18:06.204Z,2.35
2022-11-07T23:20:55.779Z,2.25
2022-11-07T23:23:28.940Z,2.28
2022-11-07T23:26:04.478Z,1.98
2022-11-07T23:28:38.185Z,2.05
2022-11-07T23:31:09.462Z,1.83
2022-11-07T23:33:43.544Z,1.85
2022-11-07T23:36:21.128Z,2.47
2022-11-07T23:38:52.564Z,1.77
2022-11-07T23:41:23.322Z,1.40
2022-11-07T23:43:53.881Z,2.17
2022-11-07T23:46:44.383Z,2.00
2022-11-07T23:49:33.711Z,2.17
2022-11-07T23:52:06.676Z,2.17
2022-11-07T23:54:55.160Z,2.35
2022-11-07T23:57:27.223Z,1.60
